createdAt,value
2023-04-24T00:01:35.142Z,63.68
2023-04-24T00:04:02.913Z,63.53
2023-04-24T00:06:35.456Z,61.90
2023-04-24T00:09:02.260Z,58.89
2023-04-24T00:11:29.518Z,58.07
2023-04-24T00:13:56.909Z,59.37
2023-04-24T00:16:24.589Z,60.30
2023-04-24T00:18:53.794Z,60.75
2023-04-24T00:21:20.564Z,62.10
2023-04-24T00:23:47.252Z,64.10
2023-04-24T00:26:13.975Z,63.14
2023-04-24T00:28:40.782Z,61.09
2023-04-24T00:31:08.253Z,58.68
2023-04-24T00:33:34.889Z,58.05
2023-04-24T00:36:01.415Z,59.61
2023-04-24T00:38:27.932Z,60.41
2023-04-24T00:40:55.127Z,61.83
2023-04-24T00:43:21.761Z,64.27
2023-04-24T00:45:48.592Z,64.75
2023-04-24T00:48:15.767Z,62.92
2023-04-24T00:50:43.272Z,61.10
2023-04-24T00:53:09.863Z,58.26
2023-04-24T00:55:38.265Z,58.05
2023-04-24T00:58:05.845Z,59.02
2023-04-24T01:00:32.722Z,61.10
2023-04-24T01:03:02.988Z,62.04
2023-04-24T01:05:29.680Z,64.75
2023-04-24T01:07:57.045Z,63.89
2023-04-24T01:10:25.279Z,62.16
2023-04-24T01:12:53.159Z,60.55
2023-04-24T01:15:22.009Z,58.13
2023-04-24T01:17:48.588Z,57.77
2023-04-24T01:20:16.719Z,59.19
2023-04-24T01:22:43.343Z,59.45
2023-04-24T01:25:10.533Z,60.44
2023-04-24T01:27:37.071Z,63.35
2023-04-24T01:30:06.921Z,64.53
2023-04-24T01:32:34.074Z,63.05
2023-04-24T01:35:01.076Z,61.74
2023-04-24T01:37:27.994Z,60.70
2023-04-24T01:39:54.894Z,58.41
2023-04-24T01:42:21.463Z,57.88
2023-04-24T01:44:48.156Z,59.09
2023-04-24T01:47:14.810Z,60.19
2023-04-24T01:49:41.777Z,61.07
2023-04-24T01:52:08.642Z,63.74
2023-04-24T01:54:35.241Z,64.92
2023-04-24T01:57:03.620Z,63.63
2023-04-24T01:59:30.944Z,61.99
2023-04-24T02:01:57.485Z,60.25
2023-04-24T02:04:24.077Z,58.09
2023-04-24T02:06:51.076Z,57.45
2023-04-24T02:09:17.689Z,58.68
2023-04-24T02:11:44.810Z,60.47
2023-04-24T02:14:11.470Z,61.28
2023-04-24T02:16:52.324Z,63.32
2023-04-24T02:19:18.920Z,64.17
2023-04-24T02:21:45.421Z,61.90
2023-04-24T02:24:11.966Z,60.95
2023-04-24T02:26:38.520Z,58.88
2023-04-24T02:29:05.184Z,57.93
2023-04-24T02:31:31.738Z,58.57
2023-04-24T02:33:58.304Z,60.31
2023-04-24T02:36:24.908Z,63.60
2023-04-24T02:38:51.438Z,64.28
2023-04-24T02:41:18.082Z,62.81
2023-04-24T02:43:44.663Z,61.66
2023-04-24T02:46:11.313Z,60.58
2023-04-24T02:48:38.021Z,58.70
2023-04-24T02:51:05.208Z,57.91
2023-04-24T02:53:31.844Z,58.64
2023-04-24T02:55:58.431Z,59.74
2023-04-24T02:58:25.977Z,60.90
2023-04-24T03:00:57.032Z,63.95
2023-04-24T03:03:24.004Z,65.32
2023-04-24T03:05:51.326Z,63.18
2023-04-24T03:08:18.594Z,61.90
2023-04-24T03:10:46.263Z,60.60
2023-04-24T03:13:17.703Z,58.33
2023-04-24T03:15:44.412Z,58.32
2023-04-24T03:18:11.037Z,59.24
2023-04-24T03:20:38.613Z,60.10
2023-04-24T03:23:05.467Z,62.55
2023-04-24T03:25:32.423Z,64.03
2023-04-24T03:27:59.127Z,62.63
2023-04-24T03:30:35.793Z,61.18
2023-04-24T03:33:02.995Z,59.01
2023-04-24T03:35:31.332Z,58.57
2023-04-24T03:38:00.632Z,59.74
2023-04-24T03:40:39.209Z,60.56
2023-04-24T03:43:13.481Z,64.53
2023-04-24T03:45:40.012Z,64.52
2023-04-24T03:48:07.100Z,62.38
2023-04-24T03:50:33.625Z,61.07
2023-04-24T03:53:00.543Z,59.04
2023-04-24T03:55:34.878Z,58.74
2023-04-24T03:58:01.827Z,60.00
2023-04-24T04:00:28.874Z,60.83
2023-04-24T04:03:03.624Z,63.69
2023-04-24T04:05:30.975Z,64.33
2023-04-24T04:07:57.764Z,62.50
2023-04-24T04:10:24.704Z,60.62
2023-04-24T04:12:51.256Z,58.25
2023-04-24T04:15:17.865Z,57.77
2023-04-24T04:17:44.598Z,58.86
2023-04-24T04:20:11.826Z,59.75
2023-04-24T04:22:39.167Z,60.85
2023-04-24T04:25:09.417Z,63.60
2023-04-24T04:27:36.240Z,63.53
2023-04-24T04:30:06.766Z,61.38
2023-04-24T04:32:40.126Z,59.10
2023-04-24T04:35:07.115Z,56.98
2023-04-24T04:37:34.422Z,57.82
2023-04-24T04:40:13.386Z,59.13
2023-04-24T04:42:48.586Z,60.37
2023-04-24T04:45:17.965Z,60.30
2023-04-24T04:48:01.795Z,60.79
2023-04-24T04:50:29.423Z,60.73
2023-04-24T04:52:57.827Z,60.97
2023-04-24T04:55:28.347Z,61.24
2023-04-24T04:58:08.165Z,61.40
2023-04-24T05:00:36.816Z,61.14
2023-04-24T05:03:20.125Z,60.82
2023-04-24T05:05:50.762Z,60.62
2023-04-24T05:08:26.496Z,59.98
2023-04-24T05:10:54.829Z,59.78
2023-04-24T05:13:31.723Z,59.38
2023-04-24T05:15:59.391Z,59.34
2023-04-24T05:18:26.508Z,58.87
2023-04-24T05:20:53.477Z,58.26
2023-04-24T05:23:20.478Z,58.20
2023-04-24T05:25:52.233Z,57.95
2023-04-24T05:28:20.004Z,57.72
2023-04-24T05:30:51.937Z,57.64
2023-04-24T05:33:18.795Z,56.40
2023-04-24T05:35:48.034Z,56.40
2023-04-24T05:38:18.653Z,56.10
2023-04-24T05:40:45.425Z,55.66
2023-04-24T05:43:12.031Z,55.83
2023-04-24T05:45:39.552Z,55.79
2023-04-24T05:48:06.859Z,55.34
2023-04-24T05:50:34.895Z,55.20
2023-04-24T05:53:03.866Z,55.08
2023-04-24T05:55:33.792Z,54.64
2023-04-24T05:58:00.781Z,54.15
2023-04-24T06:00:27.894Z,54.41
2023-04-24T06:03:00.116Z,54.13
2023-04-24T06:05:27.617Z,54.23
2023-04-24T06:07:54.566Z,54.01
2023-04-24T06:10:23.070Z,53.52
2023-04-24T06:12:50.614Z,52.94
2023-04-24T06:15:17.905Z,52.80
2023-04-24T06:17:57.677Z,52.60
2023-04-24T06:20:25.118Z,52.16
2023-04-24T06:22:51.864Z,51.62
2023-04-24T06:25:19.074Z,51.11
2023-04-24T06:27:45.919Z,50.40
2023-04-24T06:30:12.906Z,49.08
2023-04-24T06:32:39.504Z,49.66
2023-04-24T06:35:08.415Z,47.65
2023-04-24T06:37:35.031Z,45.02
2023-04-24T06:40:01.933Z,42.22
2023-04-24T06:42:28.516Z,39.59
2023-04-24T06:44:55.988Z,36.28
2023-04-24T06:47:22.705Z,34.54
2023-04-24T06:49:51.794Z,32.54
2023-04-24T06:52:18.418Z,31.61
2023-04-24T06:54:45.005Z,30.83
2023-04-24T06:57:11.749Z,30.74
2023-04-24T06:59:39.129Z,30.52
2023-04-24T07:02:05.991Z,30.13
2023-04-24T07:04:32.810Z,29.52
2023-04-24T07:06:59.519Z,29.08
2023-04-24T07:09:27.942Z,28.60
2023-04-24T07:11:54.934Z,28.95
2023-04-24T07:14:21.706Z,26.19
2023-04-24T07:16:48.524Z,25.07
2023-04-24T07:19:15.861Z,24.64
2023-04-24T07:21:42.418Z,23.88
2023-04-24T07:24:12.002Z,24.17
2023-04-24T07:26:40.077Z,24.47
2023-04-24T07:29:07.635Z,23.32
2023-04-24T07:31:34.717Z,22.96
2023-04-24T07:34:01.828Z,23.25
2023-04-24T07:36:29.034Z,21.58
2023-04-24T07:38:57.398Z,21.85
2023-04-24T07:41:25.366Z,21.28
2023-04-24T07:43:53.591Z,20.82
2023-04-24T07:46:21.425Z,19.60
2023-04-24T07:48:58.649Z,19.95
2023-04-24T07:51:28.760Z,20.82
2023-04-24T07:53:58.315Z,21.20
2023-04-24T07:56:26.284Z,21.14
2023-04-24T07:58:54.517Z,20.11
2023-04-24T08:01:21.079Z,19.68
2023-04-24T08:03:47.768Z,20.36
2023-04-24T08:06:14.585Z,20.04
2023-04-24T08:08:41.569Z,19.74
2023-04-24T08:11:08.221Z,19.42
2023-04-24T08:13:34.954Z,20.36
2023-04-24T08:16:01.634Z,20.61
2023-04-24T08:18:28.645Z,19.22
2023-04-24T08:20:55.396Z,18.98
2023-04-24T08:23:23.080Z,18.36
2023-04-24T08:25:49.968Z,17.85
2023-04-24T08:28:21.094Z,18.39
2023-04-24T08:30:48.776Z,18.49
2023-04-24T08:33:16.173Z,17.60
2023-04-24T08:35:42.819Z,18.26
2023-04-24T08:38:09.461Z,18.39
2023-04-24T08:40:36.619Z,18.01
2023-04-24T08:43:04.665Z,18.13
2023-04-24T08:45:31.723Z,18.24
2023-04-24T08:47:59.403Z,18.41
2023-04-24T08:50:26.574Z,17.75
2023-04-24T08:52:54.568Z,17.94
2023-04-24T08:55:22.281Z,18.37
2023-04-24T08:57:56.891Z,18.54
2023-04-24T09:00:23.598Z,19.42
2023-04-24T09:02:51.712Z,19.61
2023-04-24T09:05:19.958Z,20.27
2023-04-24T09:07:57.300Z,20.69
2023-04-24T09:10:27.266Z,20.97
2023-04-24T09:12:55.414Z,21.32
2023-04-24T09:15:22.538Z,21.39
2023-04-24T09:17:49.204Z,21.50
2023-04-24T09:20:16.559Z,21.09
2023-04-24T09:22:44.614Z,20.52
2023-04-24T09:25:13.755Z,20.12
2023-04-24T09:27:47.439Z,19.44
2023-04-24T09:30:15.195Z,18.66
2023-04-24T09:32:42.875Z,18.76
2023-04-24T09:35:11.393Z,19.00
2023-04-24T09:37:49.864Z,19.63
2023-04-24T09:40:22.007Z,19.94
2023-04-24T09:42:58.799Z,19.86
2023-04-24T09:45:38.932Z,19.91
2023-04-24T09:48:07.455Z,19.66
2023-04-24T09:50:35.569Z,20.56
2023-04-24T09:53:04.790Z,20.97
2023-04-24T09:55:32.984Z,20.44
2023-04-24T09:58:06.442Z,21.01
2023-04-24T10:00:34.110Z,20.36
2023-04-24T10:03:04.520Z,19.88
2023-04-24T10:05:36.746Z,20.59
2023-04-24T10:08:10.416Z,21.01
2023-04-24T10:10:43.875Z,20.92
2023-04-24T10:13:11.979Z,20.41
2023-04-24T10:15:39.993Z,20.55
2023-04-24T10:18:08.622Z,21.56
2023-04-24T10:20:38.074Z,20.77
2023-04-24T10:23:05.418Z,21.01
2023-04-24T10:25:34.890Z,20.62
2023-04-24T10:28:02.552Z,19.91
2023-04-24T10:30:32.055Z,19.83
2023-04-24T10:32:58.812Z,19.70
2023-04-24T10:35:27.879Z,19.34
2023-04-24T10:38:02.582Z,19.32
2023-04-24T10:40:34.946Z,19.61
2023-04-24T10:43:11.549Z,19.67
2023-04-24T10:45:39.344Z,19.58
2023-04-24T10:48:12.044Z,19.07
2023-04-24T10:50:45.106Z,19.21
2023-04-24T10:53:18.239Z,18.81
2023-04-24T10:56:06.796Z,18.98
2023-04-24T10:58:45.227Z,18.70
2023-04-24T11:01:29.580Z,18.20
2023-04-24T11:03:58.549Z,17.91
2023-04-24T11:06:33.278Z,18.40
2023-04-24T11:09:07.206Z,18.30
2023-04-24T11:11:35.508Z,18.40
2023-04-24T11:14:05.331Z,18.85
2023-04-24T11:16:42.787Z,19.73
2023-04-24T11:19:17.370Z,20.38
2023-04-24T11:21:46.685Z,19.43
2023-04-24T11:24:26.819Z,18.93
2023-04-24T11:26:59.205Z,19.78
2023-04-24T11:29:48.748Z,19.92
2023-04-24T11:32:26.553Z,20.12
2023-04-24T11:34:54.670Z,20.79
2023-04-24T11:37:22.666Z,20.50
2023-04-24T11:39:52.920Z,21.14
2023-04-24T11:42:20.923Z,21.15
2023-04-24T11:44:48.896Z,20.97
2023-04-24T11:47:15.623Z,20.79
2023-04-24T11:49:42.590Z,19.75
2023-04-24T11:52:09.194Z,19.84
2023-04-24T11:54:35.910Z,20.15
2023-04-24T11:57:07.010Z,20.90
2023-04-24T11:59:38.371Z,21.05
2023-04-24T12:02:05.794Z,20.85
2023-04-24T12:04:41.146Z,20.84
2023-04-24T12:07:11.720Z,20.09
2023-04-24T12:09:47.678Z,19.81
2023-04-24T12:12:16.844Z,20.25
2023-04-24T12:15:10.305Z,20.47
2023-04-24T12:17:39.912Z,20.88
2023-04-24T12:20:09.733Z,20.69
2023-04-24T12:22:49.169Z,20.92
2023-04-24T12:25:17.798Z,20.58
2023-04-24T12:27:52.748Z,20.93
2023-04-24T12:30:19.316Z,20.47
2023-04-24T12:32:48.370Z,20.46
2023-04-24T12:35:21.742Z,20.14
2023-04-24T12:37:48.415Z,20.46
2023-04-24T12:40:15.942Z,21.14
2023-04-24T12:42:44.624Z,22.86
2023-04-24T12:45:13.327Z,24.25
2023-04-24T12:47:41.352Z,25.71
2023-04-24T12:50:13.103Z,26.26
2023-04-24T12:52:40.483Z,26.27
2023-04-24T12:55:11.315Z,26.42
2023-04-24T12:57:40.092Z,25.69
2023-04-24T13:00:09.312Z,26.13
2023-04-24T13:02:36.548Z,27.70
2023-04-24T13:05:03.914Z,29.09
2023-04-24T13:07:30.623Z,29.63
2023-04-24T13:09:58.831Z,30.28
2023-04-24T13:12:26.813Z,31.21
2023-04-24T13:14:54.739Z,32.24
2023-04-24T13:17:21.684Z,32.89
2023-04-24T13:19:52.029Z,33.19
2023-04-24T13:22:22.101Z,35.00
2023-04-24T13:24:51.743Z,36.09
2023-04-24T13:27:19.444Z,37.50
2023-04-24T13:29:46.815Z,39.66
2023-04-24T13:32:13.624Z,40.47
2023-04-24T13:34:40.543Z,41.75
2023-04-24T13:37:07.638Z,42.93
2023-04-24T13:39:34.378Z,43.63
2023-04-24T13:42:03.224Z,44.00
2023-04-24T13:44:31.204Z,42.25
2023-04-24T13:46:58.926Z,41.21
2023-04-24T13:49:26.594Z,39.85
2023-04-24T13:51:54.892Z,38.71
2023-04-24T13:54:23.180Z,39.63
2023-04-24T13:56:50.736Z,40.62
2023-04-24T13:59:17.539Z,40.38
2023-04-24T14:01:46.036Z,39.99
2023-04-24T14:04:13.411Z,40.80
2023-04-24T14:06:40.138Z,40.71
2023-04-24T14:09:07.400Z,40.44
2023-04-24T14:11:35.058Z,40.20
2023-04-24T14:14:01.929Z,39.56
2023-04-24T14:16:30.129Z,39.92
2023-04-24T14:18:57.234Z,39.92
2023-04-24T14:21:23.869Z,40.26
2023-04-24T14:23:50.730Z,41.04
2023-04-24T14:26:17.550Z,41.00
2023-04-24T14:28:44.307Z,41.61
2023-04-24T14:31:11.007Z,40.84
2023-04-24T14:33:37.691Z,40.78
2023-04-24T14:36:06.762Z,41.70
2023-04-24T14:38:33.812Z,41.68
2023-04-24T14:43:30.327Z,39.83
2023-04-24T14:45:57.079Z,38.87
2023-04-24T14:48:23.807Z,38.36
2023-04-24T14:50:50.552Z,37.37
2023-04-24T14:53:17.612Z,36.66
2023-04-24T14:55:44.363Z,35.81
2023-04-24T14:58:11.634Z,35.05
2023-04-24T15:00:38.456Z,35.21
2023-04-24T15:03:05.862Z,35.74
2023-04-24T15:05:32.897Z,35.38
2023-04-24T15:08:00.249Z,35.81
2023-04-24T15:10:27.021Z,35.58
2023-04-24T15:12:53.875Z,36.32
2023-04-24T15:15:20.695Z,35.25
2023-04-24T15:17:47.381Z,34.69
2023-04-24T15:20:14.201Z,35.24
2023-04-24T15:22:40.887Z,35.11
2023-04-24T15:25:08.368Z,34.90
2023-04-24T15:27:42.651Z,33.73
2023-04-24T15:30:10.890Z,33.58
2023-04-24T15:32:38.379Z,33.94
2023-04-24T15:35:09.126Z,34.18
2023-04-24T15:37:39.002Z,33.78
2023-04-24T15:40:08.455Z,33.22
2023-04-24T15:42:36.221Z,33.54
2023-04-24T15:45:04.558Z,33.45
2023-04-24T15:47:31.602Z,34.20
2023-04-24T15:49:58.857Z,33.37
2023-04-24T15:52:26.005Z,32.88
2023-04-24T15:54:53.134Z,33.11
2023-04-24T15:57:19.989Z,33.42
2023-04-24T15:59:46.962Z,32.38
2023-04-24T16:02:19.439Z,30.18
2023-04-24T16:04:47.368Z,29.40
2023-04-24T16:07:15.684Z,31.09
2023-04-24T16:09:42.780Z,35.58
2023-04-24T16:12:10.604Z,37.58
2023-04-24T16:14:38.613Z,43.20
2023-04-24T16:17:05.995Z,40.01
2023-04-24T16:19:34.555Z,38.92
2023-04-24T16:22:03.186Z,35.38
2023-04-24T16:24:31.161Z,33.39
2023-04-24T16:26:57.999Z,33.84
2023-04-24T16:29:24.964Z,34.17
2023-04-24T16:31:51.859Z,33.20
2023-04-24T16:34:18.743Z,33.28
2023-04-24T16:36:45.593Z,33.44
2023-04-24T16:39:13.082Z,33.61
2023-04-24T16:41:39.897Z,33.48
2023-04-24T16:44:06.656Z,33.22
2023-04-24T16:46:33.364Z,33.11
2023-04-24T16:49:00.328Z,33.14
2023-04-24T16:51:28.013Z,33.05
2023-04-24T16:53:55.634Z,32.88
2023-04-24T16:56:22.233Z,32.47
2023-04-24T16:58:49.218Z,32.44
2023-04-24T17:01:16.080Z,32.64
2023-04-24T17:03:43.032Z,33.13
2023-04-24T17:06:09.896Z,33.35
2023-04-24T17:08:39.365Z,33.59
2023-04-24T17:11:06.014Z,33.55
2023-04-24T17:13:32.619Z,33.66
2023-04-24T17:15:59.378Z,34.08
2023-04-24T17:18:26.315Z,34.39
2023-04-24T17:20:53.591Z,34.58
2023-04-24T17:23:20.941Z,34.79
2023-04-24T17:25:47.789Z,35.10
2023-04-24T17:28:31.862Z,35.34
2023-04-24T17:30:59.100Z,35.78
2023-04-24T17:33:30.753Z,35.96
2023-04-24T17:35:58.230Z,36.70
2023-04-24T17:38:25.361Z,36.95
2023-04-24T17:40:53.292Z,37.27
2023-04-24T17:43:21.115Z,37.44
2023-04-24T17:45:49.702Z,37.91
2023-04-24T17:48:17.159Z,37.92
2023-04-24T17:50:44.416Z,38.19
2023-04-24T17:53:11.204Z,38.22
2023-04-24T17:55:45.130Z,38.78
2023-04-24T17:58:12.645Z,39.00
2023-04-24T18:00:39.536Z,39.87
2023-04-24T18:03:07.922Z,39.87
2023-04-24T18:05:36.603Z,40.31
2023-04-24T18:08:04.710Z,40.48
2023-04-24T18:10:33.354Z,40.37
2023-04-24T18:13:00.012Z,40.47
2023-04-24T18:15:27.360Z,41.15
2023-04-24T18:17:54.551Z,40.99
2023-04-24T18:20:21.535Z,41.74
2023-04-24T18:22:48.403Z,41.88
2023-04-24T18:25:15.585Z,42.27
2023-04-24T18:27:44.145Z,42.43
2023-04-24T18:30:14.492Z,42.53
2023-04-24T18:32:42.186Z,42.44
2023-04-24T18:35:09.977Z,42.82
2023-04-24T18:37:36.597Z,42.98
2023-04-24T18:40:03.903Z,43.11
2023-04-24T18:42:30.767Z,43.25
2023-04-24T18:45:01.726Z,43.19
2023-04-24T18:47:29.130Z,43.31
2023-04-24T18:49:56.194Z,43.62
2023-04-24T18:52:24.483Z,43.70
2023-04-24T18:54:51.583Z,43.93
2023-04-24T18:57:18.537Z,43.94
2023-04-24T18:59:45.322Z,44.02
2023-04-24T19:02:12.246Z,44.03
2023-04-24T19:04:39.215Z,44.04
2023-04-24T19:07:05.896Z,44.26
2023-04-24T19:09:32.605Z,44.41
2023-04-24T19:12:01.496Z,45.01
2023-04-24T19:14:28.599Z,45.40
2023-04-24T19:16:56.603Z,45.75
2023-04-24T19:19:23.877Z,45.98
2023-04-24T19:21:50.886Z,46.12
2023-04-24T19:24:19.211Z,46.30
2023-04-24T19:26:46.263Z,46.50
2023-04-24T19:29:13.050Z,46.67
2023-04-24T19:31:39.717Z,46.87
2023-04-24T19:34:06.852Z,47.15
2023-04-24T19:36:33.889Z,47.25
2023-04-24T19:39:01.067Z,47.48
2023-04-24T19:41:27.913Z,47.59
2023-04-24T19:43:54.655Z,47.86
2023-04-24T19:46:21.709Z,48.07
2023-04-24T19:48:48.717Z,48.35
2023-04-24T19:51:15.630Z,48.70
2023-04-24T19:53:43.530Z,49.07
2023-04-24T19:56:10.685Z,49.26
2023-04-24T19:58:37.324Z,49.54
2023-04-24T20:01:05.982Z,49.83
2023-04-24T20:03:34.327Z,50.03
2023-04-24T20:06:01.882Z,50.31
2023-04-24T20:08:28.809Z,50.55
2023-04-24T20:10:57.882Z,50.86
2023-04-24T20:13:28.166Z,50.99
2023-04-24T20:15:55.030Z,51.38
2023-04-24T20:18:21.779Z,51.66
2023-04-24T20:20:48.473Z,51.81
2023-04-24T20:23:15.492Z,52.01
2023-04-24T20:25:42.119Z,52.11
2023-04-24T20:28:08.802Z,52.30
2023-04-24T20:30:35.964Z,52.34
2023-04-24T20:33:03.453Z,52.46
2023-04-24T20:35:30.664Z,52.63
2023-04-24T20:37:59.464Z,52.67
2023-04-24T20:40:27.174Z,52.79
2023-04-24T20:42:53.970Z,52.83
2023-04-24T20:45:21.432Z,52.82
2023-04-24T20:47:50.097Z,52.85
2023-04-24T20:50:18.837Z,52.97
2023-04-24T20:52:45.715Z,53.21
2023-04-24T20:55:13.340Z,53.41
2023-04-24T20:57:40.361Z,53.61
2023-04-24T21:00:08.862Z,54.01
2023-04-24T21:02:35.915Z,54.40
2023-04-24T21:05:04.463Z,54.77
2023-04-24T21:07:31.400Z,55.11
2023-04-24T21:09:57.963Z,55.23
2023-04-24T21:12:24.647Z,55.42
2023-04-24T21:14:51.540Z,55.71
2023-04-24T21:17:18.768Z,55.92
2023-04-24T21:19:45.507Z,56.19
2023-04-24T21:22:12.164Z,56.48
2023-04-24T21:24:38.797Z,56.85
2023-04-24T21:27:05.722Z,57.09
2023-04-24T21:29:33.133Z,57.24
2023-04-24T21:31:59.854Z,56.47
2023-04-24T21:34:26.837Z,56.39
2023-04-24T21:36:53.559Z,56.35
2023-04-24T21:39:21.071Z,56.73
2023-04-24T21:41:47.710Z,57.12
2023-04-24T21:44:14.785Z,58.23
2023-04-24T21:46:42.818Z,58.40
2023-04-24T21:49:09.595Z,59.31
2023-04-24T21:51:36.148Z,59.66
2023-04-24T21:54:02.742Z,59.14
2023-04-24T21:56:29.777Z,59.87
2023-04-24T21:58:56.762Z,59.91
2023-04-24T22:01:23.430Z,59.96
2023-04-24T22:03:50.807Z,60.00
2023-04-24T22:06:17.758Z,60.09
2023-04-24T22:08:47.638Z,59.92
2023-04-24T22:11:25.697Z,60.05
2023-04-24T22:13:54.546Z,60.02
2023-04-24T22:16:23.957Z,61.87
2023-04-24T22:18:53.716Z,64.94
2023-04-24T22:21:21.646Z,63.49
2023-04-24T22:23:48.644Z,59.72
2023-04-24T22:26:15.664Z,57.21
2023-04-24T22:28:42.276Z,57.77
2023-04-24T22:31:09.310Z,58.36
2023-04-24T22:33:36.018Z,60.34
2023-04-24T22:36:03.508Z,60.80
2023-04-24T22:38:30.049Z,62.04
2023-04-24T22:40:56.672Z,64.17
2023-04-24T22:43:23.294Z,62.73
2023-04-24T22:45:50.046Z,60.56
2023-04-24T22:48:16.911Z,58.55
2023-04-24T22:50:43.448Z,58.54
2023-04-24T22:53:10.049Z,60.13
2023-04-24T22:55:36.728Z,61.07
2023-04-24T22:58:03.352Z,62.50
2023-04-24T23:00:30.002Z,64.42
2023-04-24T23:02:56.849Z,62.92
2023-04-24T23:05:25.229Z,61.07
2023-04-24T23:07:51.971Z,59.65
2023-04-24T23:10:18.597Z,58.15
2023-04-24T23:12:45.330Z,58.84
2023-04-24T23:15:12.080Z,59.98
2023-04-24T23:17:41.477Z,62.10
2023-04-24T23:20:13.692Z,64.40
2023-04-24T23:22:40.941Z,62.92
2023-04-24T23:25:11.269Z,61.39
2023-04-24T23:27:38.158Z,59.89
2023-04-24T23:30:06.653Z,58.64
2023-04-24T23:32:33.256Z,59.57
2023-04-24T23:34:59.823Z,62.07
2023-04-24T23:37:26.738Z,63.91
2023-04-24T23:39:53.439Z,62.51
2023-04-24T23:42:20.027Z,61.11
2023-04-24T23:44:46.589Z,60.28
2023-04-24T23:47:13.162Z,59.84
2023-04-24T23:49:39.704Z,59.27
2023-04-24T23:52:06.323Z,60.38
2023-04-24T23:54:33.004Z,62.49
2023-04-24T23:56:59.675Z,64.53
2023-04-24T23:59:26.244Z,63.83
